sensor_id;sensor_type;location;lat;lon;timestamp;P1;durP1;ratioP1;P2;durP2;ratioP2
58657;SDS011;44428;45.630;13.786;2023-03-14T00:01:08;7.18;;;2.20;;
58657;SDS011;44428;45.630;13.786;2023-03-14T00:03:35;5.00;;;1.92;;
58657;SDS011;44428;45.630;13.786;2023-03-14T00:06:02;3.97;;;1.92;;
58657;SDS011;44428;45.630;13.786;2023-03-14T00:08:30;6.97;;;2.22;;
58657;SDS011;44428;45.630;13.786;2023-03-14T00:10:56;9.27;;;2.47;;
58657;SDS011;44428;45.630;13.786;2023-03-14T00:13:24;7.72;;;2.42;;
58657;SDS011;44428;45.630;13.786;2023-03-14T00:15:50;6.60;;;2.42;;
58657;SDS011;44428;45.630;13.786;2023-03-14T00:18:16;6.90;;;2.20;;
58657;SDS011;44428;45.630;13.786;2023-03-14T00:20:43;4.85;;;2.00;;
58657;SDS011;44428;45.630;13.786;2023-03-14T00:23:09;8.85;;;2.83;;
58657;SDS011;44428;45.630;13.786;2023-03-14T00:25:36;7.22;;;2.30;;
58657;SDS011;44428;45.630;13.786;2023-03-14T00:28:03;8.77;;;2.80;;
58657;SDS011;44428;45.630;13.786;2023-03-14T00:30:29;7.65;;;2.58;;
58657;SDS011;44428;45.630;13.786;2023-03-14T00:32:55;4.57;;;2.28;;
58657;SDS011;44428;45.630;13.786;2023-03-14T00:35:22;9.88;;;2.20;;
58657;SDS011;44428;45.630;13.786;2023-03-14T00:37:48;5.38;;;2.00;;
58657;SDS011;44428;45.630;13.786;2023-03-14T00:40:16;6.80;;;2.10;;
58657;SDS011;44428;45.630;13.786;2023-03-14T00:42:42;4.95;;;2.13;;
58657;SDS011;44428;45.630;13.786;2023-03-14T00:45:09;8.20;;;2.95;;
58657;SDS011;44428;45.630;13.786;2023-03-14T00:47:37;8.27;;;2.42;;
58657;SDS011;44428;45.630;13.786;2023-03-14T00:50:03;6.22;;;2.17;;
58657;SDS011;44428;45.630;13.786;2023-03-14T00:52:29;9.52;;;2.25;;
58657;SDS011;44428;45.630;13.786;2023-03-14T00:54:56;7.50;;;2.10;;
58657;SDS011;44428;45.630;13.786;2023-03-14T00:57:22;5.85;;;2.00;;
58657;SDS011;44428;45.630;13.786;2023-03-14T00:59:48;7.22;;;2.30;;
58657;SDS011;44428;45.630;13.786;2023-03-14T01:02:16;6.13;;;1.95;;
58657;SDS011;44428;45.630;13.786;2023-03-14T01:04:42;6.13;;;1.88;;
58657;SDS011;44428;45.630;13.786;2023-03-14T01:07:09;6.05;;;2.35;;
58657;SDS011;44428;45.630;13.786;2023-03-14T01:09:35;5.47;;;2.00;;
58657;SDS011;44428;45.630;13.786;2023-03-14T01:12:01;8.05;;;2.60;;
58657;SDS011;44428;45.630;13.786;2023-03-14T01:14:27;9.07;;;2.63;;
58657;SDS011;44428;45.630;13.786;2023-03-14T01:16:54;3.00;;;1.42;;
58657;SDS011;44428;45.630;13.786;2023-03-14T01:19:27;6.75;;;1.65;;
58657;SDS011;44428;45.630;13.786;2023-03-14T01:21:56;6.32;;;1.70;;
58657;SDS011;44428;45.630;13.786;2023-03-14T01:24:22;7.38;;;2.10;;
58657;SDS011;44428;45.630;13.786;2023-03-14T01:26:48;4.38;;;1.73;;
58657;SDS011;44428;45.630;13.786;2023-03-14T01:29:15;9.88;;;1.85;;
58657;SDS011;44428;45.630;13.786;2023-03-14T01:31:41;7.45;;;1.60;;
58657;SDS011;44428;45.630;13.786;2023-03-14T01:34:07;7.80;;;1.92;;
58657;SDS011;44428;45.630;13.786;2023-03-14T01:36:35;6.78;;;1.67;;
58657;SDS011;44428;45.630;13.786;2023-03-14T01:39:01;7.50;;;1.63;;
58657;SDS011;44428;45.630;13.786;2023-03-14T01:41:28;10.13;;;2.30;;
58657;SDS011;44428;45.630;13.786;2023-03-14T01:43:56;6.65;;;1.95;;
58657;SDS011;44428;45.630;13.786;2023-03-14T01:46:36;8.70;;;1.63;;
58657;SDS011;44428;45.630;13.786;2023-03-14T01:49:19;4.45;;;1.60;;
58657;SDS011;44428;45.630;13.786;2023-03-14T01:52:34;5.25;;;1.58;;
58657;SDS011;44428;45.630;13.786;2023-03-14T01:55:17;6.57;;;1.80;;
58657;SDS011;44428;45.630;13.786;2023-03-14T01:57:48;7.43;;;2.00;;
58657;SDS011;44428;45.630;13.786;2023-03-14T02:00:22;6.45;;;2.30;;
58657;SDS011;44428;45.630;13.786;2023-03-14T02:05:30;11.15;;;2.00;;
58657;SDS011;44428;45.630;13.786;2023-03-14T02:08:05;10.32;;;2.30;;
58657;SDS011;44428;45.630;13.786;2023-03-14T02:10:48;6.25;;;2.33;;
58657;SDS011;44428;45.630;13.786;2023-03-14T02:13:20;9.30;;;2.58;;
58657;SDS011;44428;45.630;13.786;2023-03-14T02:16:13;8.35;;;2.08;;
58657;SDS011;44428;45.630;13.786;2023-03-14T02:19:03;10.73;;;2.25;;
58657;SDS011;44428;45.630;13.786;2023-03-14T02:22:02;7.38;;;3.05;;
58657;SDS011;44428;45.630;13.786;2023-03-14T02:27:47;10.95;;;2.28;;
58657;SDS011;44428;45.630;13.786;2023-03-14T02:30:18;5.53;;;1.80;;
58657;SDS011;44428;45.630;13.786;2023-03-14T02:32:48;8.77;;;2.50;;
58657;SDS011;44428;45.630;13.786;2023-03-14T02:35:18;8.30;;;2.53;;
58657;SDS011;44428;45.630;13.786;2023-03-14T02:37:55;10.57;;;2.25;;
58657;SDS011;44428;45.630;13.786;2023-03-14T02:40:32;9.38;;;2.83;;
58657;SDS011;44428;45.630;13.786;2023-03-14T02:42:59;9.15;;;1.77;;
58657;SDS011;44428;45.630;13.786;2023-03-14T02:45:30;8.00;;;2.53;;
58657;SDS011;44428;45.630;13.786;2023-03-14T02:48:05;6.40;;;1.90;;
58657;SDS011;44428;45.630;13.786;2023-03-14T02:50:38;7.60;;;2.35;;
58657;SDS011;44428;45.630;13.786;2023-03-14T02:53:05;6.43;;;1.83;;
58657;SDS011;44428;45.630;13.786;2023-03-14T02:55:31;8.48;;;2.22;;
58657;SDS011;44428;45.630;13.786;2023-03-14T02:58:04;9.27;;;1.80;;
58657;SDS011;44428;45.630;13.786;2023-03-14T03:00:31;7.82;;;1.70;;
58657;SDS011;44428;45.630;13.786;2023-03-14T03:02:59;7.03;;;1.92;;
58657;SDS011;44428;45.630;13.786;2023-03-14T03:05:25;6.28;;;1.52;;
58657;SDS011;44428;45.630;13.786;2023-03-14T03:07:51;10.40;;;3.03;;
58657;SDS011;44428;45.630;13.786;2023-03-14T03:10:18;8.93;;;1.98;;
58657;SDS011;44428;45.630;13.786;2023-03-14T03:12:44;5.47;;;1.95;;
58657;SDS011;44428;45.630;13.786;2023-03-14T03:15:10;6.70;;;1.63;;
58657;SDS011;44428;45.630;13.786;2023-03-14T03:17:37;7.18;;;1.83;;
58657;SDS011;44428;45.630;13.786;2023-03-14T03:20:05;7.10;;;1.83;;
58657;SDS011;44428;45.630;13.786;2023-03-14T03:22:35;6.03;;;1.73;;
58657;SDS011;44428;45.630;13.786;2023-03-14T03:25:02;8.70;;;2.40;;
58657;SDS011;44428;45.630;13.786;2023-03-14T03:27:32;7.60;;;1.67;;
58657;SDS011;44428;45.630;13.786;2023-03-14T03:30:01;9.32;;;3.15;;
58657;SDS011;44428;45.630;13.786;2023-03-14T03:32:32;9.27;;;2.08;;
58657;SDS011;44428;45.630;13.786;2023-03-14T03:34:58;8.20;;;2.00;;
58657;SDS011;44428;45.630;13.786;2023-03-14T03:37:25;10.10;;;1.80;;
58657;SDS011;44428;45.630;13.786;2023-03-14T03:39:51;7.03;;;2.53;;
58657;SDS011;44428;45.630;13.786;2023-03-14T03:42:18;7.70;;;2.35;;
58657;SDS011;44428;45.630;13.786;2023-03-14T03:44:44;7.13;;;2.03;;
58657;SDS011;44428;45.630;13.786;2023-03-14T03:47:11;14.43;;;1.88;;
58657;SDS011;44428;45.630;13.786;2023-03-14T03:49:38;8.52;;;3.08;;
58657;SDS011;44428;45.630;13.786;2023-03-14T03:52:04;7.45;;;1.92;;
58657;SDS011;44428;45.630;13.786;2023-03-14T03:54:32;7.50;;;1.75;;
58657;SDS011;44428;45.630;13.786;2023-03-14T03:56:58;7.07;;;1.70;;
58657;SDS011;44428;45.630;13.786;2023-03-14T03:59:26;6.70;;;1.90;;
58657;SDS011;44428;45.630;13.786;2023-03-14T04:01:53;7.65;;;2.10;;
58657;SDS011;44428;45.630;13.786;2023-03-14T04:04:19;7.40;;;1.83;;
58657;SDS011;44428;45.630;13.786;2023-03-14T04:06:45;7.90;;;2.30;;
58657;SDS011;44428;45.630;13.786;2023-03-14T04:09:12;11.15;;;2.30;;
58657;SDS011;44428;45.630;13.786;2023-03-14T04:11:44;7.88;;;1.70;;
58657;SDS011;44428;45.630;13.786;2023-03-14T04:14:32;6.85;;;2.17;;
58657;SDS011;44428;45.630;13.786;2023-03-14T04:17:09;7.72;;;1.73;;
58657;SDS011;44428;45.630;13.786;2023-03-14T04:19:36;5.38;;;1.88;;
58657;SDS011;44428;45.630;13.786;2023-03-14T04:22:02;11.18;;;2.38;;
58657;SDS011;44428;45.630;13.786;2023-03-14T04:24:37;7.50;;;2.00;;
58657;SDS011;44428;45.630;13.786;2023-03-14T04:27:04;8.38;;;1.77;;
58657;SDS011;44428;45.630;13.786;2023-03-14T04:29:32;5.43;;;1.70;;
58657;SDS011;44428;45.630;13.786;2023-03-14T04:31:58;8.05;;;2.35;;
58657;SDS011;44428;45.630;13.786;2023-03-14T04:34:24;8.98;;;2.10;;
58657;SDS011;44428;45.630;13.786;2023-03-14T04:36:55;14.30;;;2.53;;
58657;SDS011;44428;45.630;13.786;2023-03-14T04:39:34;9.80;;;2.05;;
58657;SDS011;44428;45.630;13.786;2023-03-14T04:42:26;8.32;;;1.88;;
58657;SDS011;44428;45.630;13.786;2023-03-14T04:44:53;6.47;;;2.28;;
58657;SDS011;44428;45.630;13.786;2023-03-14T04:47:22;9.57;;;2.10;;
58657;SDS011;44428;45.630;13.786;2023-03-14T04:49:50;8.70;;;2.20;;
58657;SDS011;44428;45.630;13.786;2023-03-14T04:52:18;11.05;;;2.20;;
58657;SDS011;44428;45.630;13.786;2023-03-14T04:54:46;5.13;;;1.90;;
58657;SDS011;44428;45.630;13.786;2023-03-14T04:57:12;8.82;;;2.05;;
58657;SDS011;44428;45.630;13.786;2023-03-14T04:59:39;8.13;;;1.95;;
58657;SDS011;44428;45.630;13.786;2023-03-14T05:02:27;8.55;;;2.00;;
58657;SDS011;44428;45.630;13.786;2023-03-14T05:05:13;7.80;;;1.80;;
58657;SDS011;44428;45.630;13.786;2023-03-14T05:07:58;12.80;;;2.10;;
58657;SDS011;44428;45.630;13.786;2023-03-14T05:10:57;9.10;;;1.70;;
58657;SDS011;44428;45.630;13.786;2023-03-14T05:13:33;9.82;;;2.75;;
58657;SDS011;44428;45.630;13.786;2023-03-14T05:16:18;8.65;;;2.28;;
58657;SDS011;44428;45.630;13.786;2023-03-14T05:19:02;10.80;;;2.00;;
58657;SDS011;44428;45.630;13.786;2023-03-14T05:21:55;7.50;;;1.70;;
58657;SDS011;44428;45.630;13.786;2023-03-14T05:24:47;6.00;;;1.65;;
58657;SDS011;44428;45.630;13.786;2023-03-14T05:27:44;8.27;;;1.70;;
58657;SDS011;44428;45.630;13.786;2023-03-14T05:30:19;6.70;;;1.77;;
58657;SDS011;44428;45.630;13.786;2023-03-14T05:33:02;9.57;;;2.10;;
58657;SDS011;44428;45.630;13.786;2023-03-14T05:35:37;9.13;;;1.77;;
58657;SDS011;44428;45.630;13.786;2023-03-14T05:38:21;7.15;;;2.00;;
58657;SDS011;44428;45.630;13.786;2023-03-14T05:41:16;9.32;;;2.60;;
58657;SDS011;44428;45.630;13.786;2023-03-14T05:44:00;5.10;;;1.80;;
58657;SDS011;44428;45.630;13.786;2023-03-14T05:46:49;9.27;;;1.75;;
58657;SDS011;44428;45.630;13.786;2023-03-14T05:49:35;10.60;;;2.28;;
58657;SDS011;44428;45.630;13.786;2023-03-14T05:52:34;8.32;;;2.33;;
58657;SDS011;44428;45.630;13.786;2023-03-14T05:55:30;6.63;;;2.35;;
58657;SDS011;44428;45.630;13.786;2023-03-14T05:58:16;6.10;;;1.60;;
58657;SDS011;44428;45.630;13.786;2023-03-14T06:01:02;5.60;;;1.98;;
58657;SDS011;44428;45.630;13.786;2023-03-14T06:03:46;7.40;;;2.13;;
58657;SDS011;44428;45.630;13.786;2023-03-14T06:06:12;9.70;;;2.20;;
58657;SDS011;44428;45.630;13.786;2023-03-14T06:08:39;11.10;;;2.50;;
58657;SDS011;44428;45.630;13.786;2023-03-14T06:11:06;6.47;;;1.70;;
58657;SDS011;44428;45.630;13.786;2023-03-14T06:13:32;7.70;;;2.35;;
58657;SDS011;44428;45.630;13.786;2023-03-14T06:15:59;6.88;;;2.33;;
58657;SDS011;44428;45.630;13.786;2023-03-14T06:18:29;8.68;;;2.30;;
58657;SDS011;44428;45.630;13.786;2023-03-14T06:20:57;5.43;;;1.80;;
58657;SDS011;44428;45.630;13.786;2023-03-14T06:23:50;8.85;;;1.75;;
58657;SDS011;44428;45.630;13.786;2023-03-14T06:26:17;10.38;;;2.47;;
58657;SDS011;44428;45.630;13.786;2023-03-14T06:28:44;7.80;;;1.83;;
58657;SDS011;44428;45.630;13.786;2023-03-14T06:31:10;8.55;;;1.55;;
58657;SDS011;44428;45.630;13.786;2023-03-14T06:33:49;8.73;;;1.95;;
58657;SDS011;44428;45.630;13.786;2023-03-14T06:36:15;8.05;;;1.70;;
58657;SDS011;44428;45.630;13.786;2023-03-14T06:38:43;7.63;;;1.90;;
58657;SDS011;44428;45.630;13.786;2023-03-14T06:41:10;5.20;;;1.67;;
58657;SDS011;44428;45.630;13.786;2023-03-14T06:43:39;8.57;;;2.50;;
58657;SDS011;44428;45.630;13.786;2023-03-14T06:46:07;8.90;;;2.55;;
58657;SDS011;44428;45.630;13.786;2023-03-14T06:48:35;6.50;;;1.92;;
58657;SDS011;44428;45.630;13.786;2023-03-14T06:51:01;8.32;;;2.83;;
58657;SDS011;44428;45.630;13.786;2023-03-14T06:53:28;12.30;;;2.60;;
58657;SDS011;44428;45.630;13.786;2023-03-14T06:55:56;9.35;;;2.25;;
58657;SDS011;44428;45.630;13.786;2023-03-14T06:58:24;7.18;;;1.58;;
58657;SDS011;44428;45.630;13.786;2023-03-14T07:00:52;5.88;;;1.52;;
58657;SDS011;44428;45.630;13.786;2023-03-14T07:03:23;7.93;;;2.20;;
58657;SDS011;44428;45.630;13.786;2023-03-14T07:05:53;8.43;;;1.88;;
58657;SDS011;44428;45.630;13.786;2023-03-14T07:08:19;7.95;;;1.77;;
58657;SDS011;44428;45.630;13.786;2023-03-14T07:10:45;9.73;;;2.03;;
58657;SDS011;44428;45.630;13.786;2023-03-14T07:13:12;8.15;;;1.67;;
58657;SDS011;44428;45.630;13.786;2023-03-14T07:15:49;8.18;;;2.15;;
58657;SDS011;44428;45.630;13.786;2023-03-14T07:18:16;8.75;;;1.75;;
58657;SDS011;44428;45.630;13.786;2023-03-14T07:20:44;8.55;;;1.70;;
58657;SDS011;44428;45.630;13.786;2023-03-14T07:23:12;9.63;;;1.83;;
58657;SDS011;44428;45.630;13.786;2023-03-14T07:25:45;9.07;;;2.10;;
58657;SDS011;44428;45.630;13.786;2023-03-14T07:28:12;6.45;;;2.10;;
58657;SDS011;44428;45.630;13.786;2023-03-14T07:30:41;10.82;;;2.13;;
58657;SDS011;44428;45.630;13.786;2023-03-14T07:33:16;11.70;;;2.40;;
58657;SDS011;44428;45.630;13.786;2023-03-14T07:35:43;8.70;;;1.67;;
58657;SDS011;44428;45.630;13.786;2023-03-14T07:38:09;7.18;;;1.60;;
58657;SDS011;44428;45.630;13.786;2023-03-14T07:40:43;3.72;;;1.23;;
58657;SDS011;44428;45.630;13.786;2023-03-14T07:43:09;4.80;;;1.55;;
58657;SDS011;44428;45.630;13.786;2023-03-14T07:45:59;4.82;;;1.67;;
58657;SDS011;44428;45.630;13.786;2023-03-14T07:48:26;6.38;;;1.60;;
58657;SDS011;44428;45.630;13.786;2023-03-14T07:50:53;6.80;;;1.73;;
58657;SDS011;44428;45.630;13.786;2023-03-14T07:53:20;5.63;;;1.30;;
58657;SDS011;44428;45.630;13.786;2023-03-14T07:55:47;7.43;;;1.77;;
58657;SDS011;44428;45.630;13.786;2023-03-14T07:58:14;8.75;;;1.58;;
58657;SDS011;44428;45.630;13.786;2023-03-14T08:00:40;7.95;;;1.50;;
58657;SDS011;44428;45.630;13.786;2023-03-14T08:03:06;6.70;;;2.05;;
58657;SDS011;44428;45.630;13.786;2023-03-14T08:05:36;4.88;;;1.45;;
58657;SDS011;44428;45.630;13.786;2023-03-14T08:08:04;9.25;;;1.83;;
58657;SDS011;44428;45.630;13.786;2023-03-14T08:10:31;6.07;;;1.80;;
58657;SDS011;44428;45.630;13.786;2023-03-14T08:12:58;5.60;;;1.52;;
58657;SDS011;44428;45.630;13.786;2023-03-14T08:15:26;9.70;;;1.95;;
58657;SDS011;44428;45.630;13.786;2023-03-14T08:17:55;6.85;;;1.50;;
58657;SDS011;44428;45.630;13.786;2023-03-14T08:20:22;6.35;;;1.63;;
58657;SDS011;44428;45.630;13.786;2023-03-14T08:22:50;7.25;;;1.77;;
58657;SDS011;44428;45.630;13.786;2023-03-14T08:25:17;5.22;;;1.15;;
58657;SDS011;44428;45.630;13.786;2023-03-14T08:27:45;4.88;;;1.70;;
58657;SDS011;44428;45.630;13.786;2023-03-14T08:30:12;6.95;;;1.77;;
58657;SDS011;44428;45.630;13.786;2023-03-14T08:32:40;4.75;;;1.33;;
58657;SDS011;44428;45.630;13.786;2023-03-14T08:35:07;5.97;;;1.60;;
58657;SDS011;44428;45.630;13.786;2023-03-14T08:37:34;6.78;;;1.70;;
58657;SDS011;44428;45.630;13.786;2023-03-14T08:40:02;8.77;;;1.52;;
58657;SDS011;44428;45.630;13.786;2023-03-14T08:42:32;6.43;;;1.40;;
58657;SDS011;44428;45.630;13.786;2023-03-14T08:44:59;8.73;;;2.20;;
58657;SDS011;44428;45.630;13.786;2023-03-14T08:47:26;9.07;;;1.65;;
58657;SDS011;44428;45.630;13.786;2023-03-14T08:49:53;6.35;;;1.60;;
58657;SDS011;44428;45.630;13.786;2023-03-14T08:52:19;7.25;;;1.67;;
58657;SDS011;44428;45.630;13.786;2023-03-14T08:54:46;5.88;;;1.40;;
58657;SDS011;44428;45.630;13.786;2023-03-14T08:57:13;6.35;;;1.60;;
58657;SDS011;44428;45.630;13.786;2023-03-14T08:59:39;6.38;;;1.50;;
58657;SDS011;44428;45.630;13.786;2023-03-14T09:02:06;5.07;;;2.05;;
58657;SDS011;44428;45.630;13.786;2023-03-14T09:04:34;5.85;;;1.48;;
58657;SDS011;44428;45.630;13.786;2023-03-14T09:07:00;6.07;;;2.05;;
58657;SDS011;44428;45.630;13.786;2023-03-14T09:09:26;5.43;;;1.55;;
58657;SDS011;44428;45.630;13.786;2023-03-14T09:11:54;5.82;;;1.60;;
58657;SDS011;44428;45.630;13.786;2023-03-14T09:14:20;8.77;;;1.95;;
58657;SDS011;44428;45.630;13.786;2023-03-14T09:16:46;6.40;;;2.30;;
58657;SDS011;44428;45.630;13.786;2023-03-14T09:19:13;11.48;;;1.85;;
58657;SDS011;44428;45.630;13.786;2023-03-14T09:21:39;9.02;;;2.20;;
58657;SDS011;44428;45.630;13.786;2023-03-14T09:24:06;9.27;;;2.15;;
58657;SDS011;44428;45.630;13.786;2023-03-14T09:26:32;7.68;;;1.80;;
58657;SDS011;44428;45.630;13.786;2023-03-14T09:28:58;7.65;;;2.10;;
58657;SDS011;44428;45.630;13.786;2023-03-14T09:31:25;7.28;;;1.85;;
58657;SDS011;44428;45.630;13.786;2023-03-14T09:33:51;7.95;;;1.90;;
58657;SDS011;44428;45.630;13.786;2023-03-14T09:36:17;7.25;;;1.40;;
58657;SDS011;44428;45.630;13.786;2023-03-14T09:38:44;8.50;;;2.05;;
58657;SDS011;44428;45.630;13.786;2023-03-14T09:41:12;8.73;;;1.75;;
58657;SDS011;44428;45.630;13.786;2023-03-14T09:43:41;8.88;;;2.13;;
58657;SDS011;44428;45.630;13.786;2023-03-14T09:46:10;4.95;;;1.65;;
58657;SDS011;44428;45.630;13.786;2023-03-14T09:48:38;6.30;;;1.70;;
58657;SDS011;44428;45.630;13.786;2023-03-14T09:51:17;4.25;;;1.60;;
58657;SDS011;44428;45.630;13.786;2023-03-14T09:53:49;4.55;;;1.70;;
58657;SDS011;44428;45.630;13.786;2023-03-14T09:56:23;8.55;;;2.10;;
58657;SDS011;44428;45.630;13.786;2023-03-14T09:58:57;8.65;;;2.33;;
58657;SDS011;44428;45.630;13.786;2023-03-14T10:01:30;8.68;;;1.67;;
58657;SDS011;44428;45.630;13.786;2023-03-14T10:03:59;9.98;;;2.08;;
58657;SDS011;44428;45.630;13.786;2023-03-14T10:06:30;8.50;;;2.40;;
58657;SDS011;44428;45.630;13.786;2023-03-14T10:08:56;6.22;;;1.45;;
58657;SDS011;44428;45.630;13.786;2023-03-14T10:11:23;8.20;;;2.13;;
58657;SDS011;44428;45.630;13.786;2023-03-14T10:14:11;5.88;;;2.10;;
58657;SDS011;44428;45.630;13.786;2023-03-14T10:16:45;5.68;;;2.47;;
58657;SDS011;44428;45.630;13.786;2023-03-14T10:19:13;8.60;;;1.80;;
58657;SDS011;44428;45.630;13.786;2023-03-14T10:21:52;8.25;;;2.28;;
58657;SDS011;44428;45.630;13.786;2023-03-14T10:24:38;8.90;;;2.42;;
58657;SDS011;44428;45.630;13.786;2023-03-14T10:27:19;5.88;;;1.65;;
58657;SDS011;44428;45.630;13.786;2023-03-14T10:29:55;6.95;;;2.20;;
58657;SDS011;44428;45.630;13.786;2023-03-14T10:32:28;8.00;;;1.88;;
58657;SDS011;44428;45.630;13.786;2023-03-14T10:35:41;6.45;;;1.90;;
58657;SDS011;44428;45.630;13.786;2023-03-14T10:37:51;7.95;;;2.10;;
58657;SDS011;44428;45.630;13.786;2023-03-14T10:40:20;8.20;;;2.78;;
58657;SDS011;44428;45.630;13.786;2023-03-14T10:43:18;5.85;;;1.95;;
58657;SDS011;44428;45.630;13.786;2023-03-14T10:46:09;6.97;;;2.22;;
58657;SDS011;44428;45.630;13.786;2023-03-14T10:49:00;10.75;;;2.28;;
58657;SDS011;44428;45.630;13.786;2023-03-14T10:51:32;8.88;;;1.77;;
58657;SDS011;44428;45.630;13.786;2023-03-14T10:54:03;6.50;;;2.00;;
58657;SDS011;44428;45.630;13.786;2023-03-14T10:56:40;8.88;;;1.95;;
58657;SDS011;44428;45.630;13.786;2023-03-14T10:59:07;8.25;;;2.10;;
58657;SDS011;44428;45.630;13.786;2023-03-14T11:07:44;8.05;;;2.25;;
58657;SDS011;44428;45.630;13.786;2023-03-14T11:10:14;7.47;;;2.72;;
58657;SDS011;44428;45.630;13.786;2023-03-14T11:13:05;8.07;;;1.90;;
58657;SDS011;44428;45.630;13.786;2023-03-14T11:15:51;11.57;;;2.40;;
58657;SDS011;44428;45.630;13.786;2023-03-14T11:21:29;9.32;;;2.40;;
58657;SDS011;44428;45.630;13.786;2023-03-14T11:34:54;8.77;;;2.58;;
58657;SDS011;44428;45.630;13.786;2023-03-14T11:37:28;8.15;;;2.45;;
58657;SDS011;44428;45.630;13.786;2023-03-14T11:40:10;13.30;;;3.92;;
58657;SDS011;44428;45.630;13.786;2023-03-14T11:43:00;9.00;;;2.65;;
58657;SDS011;44428;45.630;13.786;2023-03-14T11:45:32;9.38;;;2.95;;
58657;SDS011;44428;45.630;13.786;2023-03-14T11:48:07;11.85;;;3.40;;
58657;SDS011;44428;45.630;13.786;2023-03-14T11:50:47;10.02;;;3.25;;
58657;SDS011;44428;45.630;13.786;2023-03-14T11:53:19;12.38;;;2.97;;
58657;SDS011;44428;45.630;13.786;2023-03-14T11:56:00;9.45;;;2.55;;
58657;SDS011;44428;45.630;13.786;2023-03-14T11:58:30;10.55;;;2.85;;
58657;SDS011;44428;45.630;13.786;2023-03-14T12:01:03;10.93;;;3.08;;
58657;SDS011;44428;45.630;13.786;2023-03-14T12:03:43;9.48;;;2.53;;
58657;SDS011;44428;45.630;13.786;2023-03-14T12:08:56;12.05;;;3.80;;
58657;SDS011;44428;45.630;13.786;2023-03-14T12:11:39;12.25;;;4.03;;
58657;SDS011;44428;45.630;13.786;2023-03-14T12:16:52;11.50;;;3.40;;
58657;SDS011;44428;45.630;13.786;2023-03-14T12:21:50;11.45;;;3.17;;
58657;SDS011;44428;45.630;13.786;2023-03-14T12:24:32;15.57;;;3.17;;
58657;SDS011;44428;45.630;13.786;2023-03-14T12:27:02;11.10;;;3.67;;
58657;SDS011;44428;45.630;13.786;2023-03-14T12:29:30;10.65;;;2.83;;
58657;SDS011;44428;45.630;13.786;2023-03-14T12:37:40;7.40;;;2.88;;
58657;SDS011;44428;45.630;13.786;2023-03-14T12:40:17;14.55;;;3.33;;
58657;SDS011;44428;45.630;13.786;2023-03-14T12:42:58;11.70;;;2.63;;
58657;SDS011;44428;45.630;13.786;2023-03-14T12:45:30;10.32;;;3.25;;
58657;SDS011;44428;45.630;13.786;2023-03-14T12:48:14;8.02;;;2.70;;
58657;SDS011;44428;45.630;13.786;2023-03-14T12:50:54;10.95;;;3.30;;
58657;SDS011;44428;45.630;13.786;2023-03-14T12:56:20;15.63;;;3.42;;
58657;SDS011;44428;45.630;13.786;2023-03-14T13:01:59;11.85;;;3.97;;
58657;SDS011;44428;45.630;13.786;2023-03-14T13:04:30;11.20;;;2.80;;
58657;SDS011;44428;45.630;13.786;2023-03-14T13:07:03;8.57;;;3.08;;
58657;SDS011;44428;45.630;13.786;2023-03-14T13:12:03;12.88;;;3.40;;
58657;SDS011;44428;45.630;13.786;2023-03-14T13:14:36;14.45;;;3.03;;
58657;SDS011;44428;45.630;13.786;2023-03-14T13:17:14;10.90;;;2.60;;
58657;SDS011;44428;45.630;13.786;2023-03-14T13:19:48;11.55;;;3.33;;
58657;SDS011;44428;45.630;13.786;2023-03-14T13:22:21;13.00;;;3.45;;
58657;SDS011;44428;45.630;13.786;2023-03-14T13:24:58;13.35;;;3.60;;
58657;SDS011;44428;45.630;13.786;2023-03-14T13:27:26;10.68;;;3.20;;
58657;SDS011;44428;45.630;13.786;2023-03-14T13:29:55;15.00;;;3.70;;
58657;SDS011;44428;45.630;13.786;2023-03-14T13:32:26;10.18;;;3.33;;
58657;SDS011;44428;45.630;13.786;2023-03-14T13:34:57;10.45;;;3.03;;
58657;SDS011;44428;45.630;13.786;2023-03-14T13:37:25;13.95;;;3.90;;
58657;SDS011;44428;45.630;13.786;2023-03-14T13:39:53;11.75;;;3.03;;
58657;SDS011;44428;45.630;13.786;2023-03-14T13:42:21;14.95;;;3.63;;
58657;SDS011;44428;45.630;13.786;2023-03-14T13:44:52;13.95;;;3.15;;
58657;SDS011;44428;45.630;13.786;2023-03-14T13:47:21;12.82;;;2.97;;
58657;SDS011;44428;45.630;13.786;2023-03-14T13:49:50;12.10;;;3.47;;
58657;SDS011;44428;45.630;13.786;2023-03-14T13:54:52;14.00;;;3.72;;
58657;SDS011;44428;45.630;13.786;2023-03-14T13:57:22;12.18;;;3.70;;
58657;SDS011;44428;45.630;13.786;2023-03-14T14:00:03;14.52;;;3.47;;
58657;SDS011;44428;45.630;13.786;2023-03-14T14:02:33;12.40;;;3.20;;
58657;SDS011;44428;45.630;13.786;2023-03-14T14:05:03;10.27;;;2.75;;
58657;SDS011;44428;45.630;13.786;2023-03-14T14:07:30;10.05;;;2.95;;
58657;SDS011;44428;45.630;13.786;2023-03-14T14:09:57;12.38;;;3.47;;
58657;SDS011;44428;45.630;13.786;2023-03-14T14:12:30;15.10;;;3.97;;
58657;SDS011;44428;45.630;13.786;2023-03-14T14:17:43;14.07;;;3.25;;
58657;SDS011;44428;45.630;13.786;2023-03-14T14:20:29;10.10;;;2.60;;
58657;SDS011;44428;45.630;13.786;2023-03-14T14:23:04;11.40;;;3.42;;
58657;SDS011;44428;45.630;13.786;2023-03-14T14:25:35;11.93;;;3.40;;
58657;SDS011;44428;45.630;13.786;2023-03-14T14:28:15;12.80;;;3.83;;
58657;SDS011;44428;45.630;13.786;2023-03-14T14:33:55;11.38;;;3.13;;
58657;SDS011;44428;45.630;13.786;2023-03-14T14:36:24;16.52;;;3.10;;
58657;SDS011;44428;45.630;13.786;2023-03-14T14:38:52;11.30;;;2.80;;
58657;SDS011;44428;45.630;13.786;2023-03-14T14:41:20;9.85;;;3.22;;
58657;SDS011;44428;45.630;13.786;2023-03-14T14:43:47;9.75;;;3.85;;
58657;SDS011;44428;45.630;13.786;2023-03-14T14:46:15;10.32;;;3.47;;
58657;SDS011;44428;45.630;13.786;2023-03-14T14:48:45;13.90;;;4.05;;
58657;SDS011;44428;45.630;13.786;2023-03-14T14:51:22;15.15;;;4.20;;
58657;SDS011;44428;45.630;13.786;2023-03-14T14:54:00;12.85;;;3.83;;
58657;SDS011;44428;45.630;13.786;2023-03-14T14:56:35;12.60;;;3.97;;
58657;SDS011;44428;45.630;13.786;2023-03-14T14:59:03;12.48;;;4.13;;
58657;SDS011;44428;45.630;13.786;2023-03-14T15:01:34;11.70;;;4.15;;
58657;SDS011;44428;45.630;13.786;2023-03-14T15:04:11;12.95;;;3.53;;
58657;SDS011;44428;45.630;13.786;2023-03-14T15:06:39;9.73;;;3.63;;
58657;SDS011;44428;45.630;13.786;2023-03-14T15:09:12;10.07;;;3.43;;
58657;SDS011;44428;45.630;13.786;2023-03-14T15:11:38;10.60;;;3.75;;
58657;SDS011;44428;45.630;13.786;2023-03-14T15:14:05;13.02;;;3.90;;
58657;SDS011;44428;45.630;13.786;2023-03-14T15:16:32;16.38;;;4.57;;
58657;SDS011;44428;45.630;13.786;2023-03-14T15:19:00;10.20;;;3.58;;
58657;SDS011;44428;45.630;13.786;2023-03-14T15:21:31;9.77;;;4.38;;
58657;SDS011;44428;45.630;13.786;2023-03-14T15:23:59;11.13;;;3.67;;
58657;SDS011;44428;45.630;13.786;2023-03-14T15:26:25;9.50;;;4.03;;
58657;SDS011;44428;45.630;13.786;2023-03-14T15:28:53;11.65;;;4.22;;
58657;SDS011;44428;45.630;13.786;2023-03-14T15:31:20;11.88;;;4.10;;
58657;SDS011;44428;45.630;13.786;2023-03-14T15:33:49;12.20;;;3.97;;
58657;SDS011;44428;45.630;13.786;2023-03-14T15:38:47;14.43;;;4.07;;
58657;SDS011;44428;45.630;13.786;2023-03-14T15:41:13;11.63;;;4.18;;
58657;SDS011;44428;45.630;13.786;2023-03-14T15:43:41;14.70;;;4.18;;
58657;SDS011;44428;45.630;13.786;2023-03-14T15:46:10;12.32;;;4.55;;
58657;SDS011;44428;45.630;13.786;2023-03-14T15:48:37;16.10;;;4.78;;
58657;SDS011;44428;45.630;13.786;2023-03-14T15:51:04;12.13;;;4.72;;
58657;SDS011;44428;45.630;13.786;2023-03-14T15:53:30;9.35;;;4.25;;
58657;SDS011;44428;45.630;13.786;2023-03-14T15:55:56;11.90;;;4.43;;